| time (UTC) | temp C | wind direction | speed KPH | gust KPH | rain 1hr cm | rain 24hr cm | rain mn cm | humidity % | barometer mb |
| 20260906221542 | 31 | 360 | 17.7 | 38.6 | 0.00 | 0.00 | 0.00 | 16 | 1001.5 |
| 20260906220041 | 30 | 360 | 17.7 | 35.4 | 0.00 | 0.00 | 0.00 | 17 | 1001.7 |
| 20260906214546 | 31 | 360 | 19.3 | 41.8 | 0.00 | 0.00 | 0.00 | 16 | 1001.7 |
| 20260906213037 | 31 | 360 | 29.0 | 45.1 | 0.00 | 0.00 | 0.00 | 15 | 1001.8 |
| 20260906211533 | 31 | 360 | 32.2 | 49.9 | 0.00 | 0.00 | 0.00 | 15 | 1001.8 |
| 20260906210034 | 32 | 360 | 24.1 | 54.7 | 0.00 | 0.00 | 0.00 | 15 | 1002.2 |
| 20260906204530 | 32 | 360 | 29.0 | 51.5 | 0.00 | 0.00 | 0.00 | 16 | 1002.0 |
| 20260906203029 | 32 | 360 | 25.7 | 51.5 | 0.00 | 0.00 | 0.00 | 16 | 1002.1 |
| 20260906201525 | 31 | 360 | 20.9 | 35.4 | 0.00 | 0.00 | 0.00 | 16 | 1002.5 |
| 20260906200022 | 31 | 360 | 6.4 | 17.7 | 0.00 | 0.00 | 0.00 | 19 | 1003.0 |
| 20260906194521 | 30 | 360 | 9.7 | 19.3 | 0.00 | 0.00 | 0.00 | 20 | 1003.7 |
| 20260906193020 | 30 | 360 | 12.9 | 24.1 | 0.00 | 0.00 | 0.00 | 20 | 1003.8 |
| 20260906191518 | 29 | 360 | 4.8 | 9.7 | 0.00 | 0.00 | 0.00 | 23 | 1003.9 |
| 20260906190017 | 29 | 360 | 3.2 | 9.7 | 0.00 | 0.00 | 0.00 | 23 | 1004.3 |
| 20260906184514 | 28 | 360 | 0.0 | 8.0 | 0.00 | 0.00 | 0.00 | 26 | 1004.4 |
| 20260906183024 | 27 | 360 | 1.6 | 12.9 | 0.00 | 0.00 | 0.00 | 24 | 1005.0 |
| 20260906181521 | 27 | 360 | 3.2 | 12.9 | 0.00 | 0.00 | 0.00 | 25 | 1005.4 |
| 20260906180003 | 27 | 360 | 3.2 | 9.7 | 0.00 | 0.00 | 0.00 | 27 | 1005.8 |
| 20260906174611 | 26 | 360 | 1.6 | 9.7 | 0.00 | 0.00 | 0.00 | 26 | 1006.2 |
| 20260906173103 | 25 | 360 | 3.2 | 8.0 | 0.00 | 0.00 | 0.00 | 31 | 1006.4 |
| 20260906171551 | 25 | 360 | 1.6 | 12.9 | 0.00 | 0.00 | 0.00 | 29 | 1006.9 |
| 20260906170047 | 24 | 360 | 0.0 | 8.0 | 0.00 | 0.00 | 0.00 | 30 | 1007.1 |
| 20260906164543 | 23 | 360 | 0.0 | 8.0 | 0.00 | 0.00 | 0.00 | 32 | 1007.1 |
| 20260906163052 | 23 | 360 | 3.2 | 14.5 | 0.00 | 0.00 | 0.00 | 36 | 1007.4 |
| 20260906161537 | 22 | 360 | 4.8 | 12.9 | 0.00 | 0.00 | 0.00 | 33 | 1007.5 |
| 20260906160036 | 21 | 360 | 1.6 | 9.7 | 0.00 | 0.00 | 0.00 | 35 | 1007.7 |
| 20260906154536 | 21 | 360 | 3.2 | 9.7 | 0.00 | 0.00 | 0.00 | 34 | 1007.7 |
| 20260906153035 | 20 | 360 | 0.0 | 12.9 | 0.00 | 0.00 | 0.00 | 36 | 1007.8 |
| 20260906151533 | 20 | 360 | 4.8 | 17.7 | 0.00 | 0.00 | 0.00 | 37 | 1007.9 |
| 20260906150033 | 19 | 360 | 1.6 | 16.1 | 0.00 | 0.00 | 0.00 | 39 | 1007.9 |
| 20260906144532 | 18 | 360 | 4.8 | 17.7 | 0.00 | 0.00 | 0.00 | 42 | 1008.0 |
| 20260906143031 | 17 | 360 | 9.7 | 16.1 | 0.00 | 0.00 | 0.00 | 45 | 1008.1 |
| 20260906141531 | 16 | 360 | 8.0 | 16.1 | 0.00 | 0.00 | 0.00 | 46 | 1008.0 |
| 20260906140001 | 16 | 360 | 11.3 | 19.3 | 0.00 | 0.00 | 0.00 | 45 | 1007.9 |
| 20260906134616 | 15 | 360 | 4.8 | 9.7 | 0.00 | 0.00 | 0.00 | 49 | 1008.0 |
| 20260906133101 | 13 | 360 | 6.4 | 8.0 | 0.00 | 0.00 | 0.00 | 54 | 1007.8 |
| 20260906131555 | 12 | 360 | 1.6 | 4.8 | 0.00 | 0.00 | 0.00 | 53 | 1007.8 |
| 20260906130108 | 11 | 360 | 0.0 | 4.8 | 0.00 | 0.00 | 0.00 | 53 | 1007.7 |
| 20260906124553 | 11 | 360 | 6.4 | 14.5 | 0.00 | 0.00 | 0.00 | 52 | 1007.5 |
| 20260906123045 | 13 | 360 | 6.4 | 9.7 | 0.00 | 0.00 | 0.00 | 48 | 1007.5 |
| 20260906121541 | 15 | 360 | 4.8 | 9.7 | 0.00 | 0.00 | 0.00 | 51 | 1007.2 |
| 20260906120038 | 15 | 360 | 0.0 | 6.4 | 0.00 | 0.00 | 0.00 | 50 | 1007.1 |
| 20260906114545 | 16 | 360 | 4.8 | 6.4 | 0.00 | 0.00 | 0.00 | 51 | 1006.9 |
| 20260906113035 | 16 | 360 | 0.0 | 6.4 | 0.00 | 0.00 | 0.00 | 50 | 1006.9 |
| 20260906111534 | 16 | 360 | 0.0 | 4.8 | 0.00 | 0.00 | 0.00 | 51 | 1006.9 |
| 20260906110031 | 16 | 360 | 4.8 | 12.9 | 0.00 | 0.00 | 0.00 | 48 | 1006.5 |
| 20260906104531 | 17 | 360 | 16.1 | 20.9 | 0.00 | 0.00 | 0.00 | 47 | 1006.3 |
| 20260906103026 | 17 | 360 | 17.7 | 25.7 | 0.00 | 0.00 | 0.00 | 45 | 1006.2 |
| 20260906101526 | 17 | 360 | 24.1 | 29.0 | 0.00 | 0.00 | 0.00 | 45 | 1006.1 |
| 20260906100030 | 17 | 360 | 22.5 | 30.6 | 0.00 | 0.00 | 0.00 | 45 | 1006.0 |
| 20260906094524 | 17 | 360 | 20.9 | 25.7 | 0.00 | 0.00 | 0.00 | 47 | 1006.0 |
| 20260906093051 | 15 | 360 | 16.1 | 22.5 | 0.00 | 0.00 | 0.00 | 54 | 1005.9 |
| 20260906091551 | 15 | 360 | 20.9 | 25.7 | 0.00 | 0.00 | 0.00 | 54 | 1005.8 |
| 20260906090043 | 17 | 360 | 6.4 | 9.7 | 0.00 | 0.00 | 0.00 | 44 | 1005.8 |
| 20260906084543 | 17 | 360 | 9.7 | 20.9 | 0.00 | 0.00 | 0.00 | 44 | 1005.8 |
| 20260906083042 | 17 | 360 | 19.3 | 25.7 | 0.00 | 0.00 | 0.00 | 43 | 1005.8 |
| 20260906081543 | 17 | 360 | 17.7 | 25.7 | 0.00 | 0.00 | 0.00 | 43 | 1005.7 |
| 20260906080037 | 18 | 360 | 24.1 | 33.8 | 0.00 | 0.00 | 0.00 | 41 | 1005.8 |
| 20260906074534 | 17 | 360 | 20.9 | 29.0 | 0.00 | 0.00 | 0.00 | 41 | 1005.9 |
| 20260906073030 | 18 | 360 | 14.5 | 25.7 | 0.00 | 0.00 | 0.00 | 38 | 1005.8 |
| 20260906071532 | 18 | 360 | 16.1 | 22.5 | 0.00 | 0.00 | 0.00 | 36 | 1005.8 |
| 20260906070027 | 18 | 360 | 17.7 | 25.7 | 0.00 | 0.00 | 0.00 | 34 | 1005.8 |
| 20260906064529 | 18 | 360 | 12.9 | 19.3 | 0.00 | 0.00 | 0.00 | 35 | 1005.9 |
| 20260906063025 | 18 | 360 | 14.5 | 25.7 | 0.00 | 0.00 | 0.00 | 34 | 1005.8 |
| 20260906061522 | 18 | 360 | 17.7 | 22.5 | 0.00 | 0.00 | 0.00 | 33 | 1005.7 |
| 20260906060018 | 19 | 360 | 16.1 | 20.9 | 0.00 | 0.00 | 0.00 | 31 | 1005.8 |
| 20260906054517 | 18 | 360 | 16.1 | 20.9 | 0.00 | 0.00 | 0.00 | 33 | 1005.6 |
| 20260906053016 | 19 | 360 | 4.8 | 8.0 | 0.00 | 0.00 | 0.00 | 29 | 1005.6 |
| 20260906051517 | 19 | 360 | 1.6 | 8.0 | 0.00 | 0.00 | 0.00 | 31 | 1005.7 |
| 20260906050015 | 19 | 360 | 6.4 | 14.5 | 0.00 | 0.00 | 0.00 | 31 | 1005.8 |
| 20260906044508 | 20 | 360 | 3.2 | 8.0 | 0.00 | 0.00 | 0.00 | 35 | 1005.5 |
| 20260906043008 | 20 | 360 | 3.2 | 6.4 | 0.00 | 0.00 | 0.00 | 31 | 1005.2 |
| 20260906041503 | 20 | 360 | 0.0 | 8.0 | 0.00 | 0.00 | 0.00 | 30 | 1005.0 |
| 20260906040059 | 21 | 360 | 9.7 | 14.5 | 0.00 | 0.00 | 0.00 | 33 | 1005.0 |
| 20260906034601 | 21 | 360 | 4.8 | 16.1 | 0.00 | 0.00 | 0.00 | 35 | 1004.8 |
| 20260906033053 | 22 | 360 | 8.0 | 17.7 | 0.00 | 0.00 | 0.00 | 30 | 1005.0 |
| 20260906031611 | 22 | 360 | 12.9 | 19.3 | 0.00 | 0.00 | 0.00 | 27 | 1004.8 |
| 20260906030044 | 24 | 360 | 0.0 | 4.8 | 0.00 | 0.00 | 0.00 | 28 | 1004.6 |
| 20260906024544 | 25 | 360 | 3.2 | 4.8 | 0.00 | 0.00 | 0.00 | 25 | 1004.3 |
| 20260906023045 | 26 | 360 | 0.0 | 4.8 | 0.00 | 0.00 | 0.00 | 26 | 1004.1 |
| 20260906021533 | 27 | 360 | 0.0 | 6.4 | 0.00 | 0.00 | 0.00 | 24 | 1004.0 |
| 20260906020129 | 27 | 360 | 4.8 | 12.9 | 0.00 | 0.00 | 0.00 | 20 | 1003.8 |
| 20260906014557 | 28 | 360 | 8.0 | 9.7 | 0.00 | 0.00 | 0.00 | 21 | 1003.7 |
| 20260906013052 | 30 | 360 | 4.8 | 9.7 | 0.00 | 0.00 | 0.00 | 21 | 1003.7 |
| 20260906011552 | 30 | 360 | 6.4 | 12.9 | 0.00 | 0.00 | 0.00 | 20 | 1003.7 |
| 20260906010043 | 30 | 360 | 11.3 | 22.5 | 0.00 | 0.00 | 0.00 | 19 | 1003.7 |
| 20260906004548 | 31 | 360 | 11.3 | 20.9 | 0.00 | 0.00 | 0.00 | 20 | 1003.7 |
| 20260906003048 | 31 | 360 | 9.7 | 25.7 | 0.00 | 0.00 | 0.00 | 18 | 1003.5 |
| 20260906001543 | 31 | 360 | 22.5 | 37.0 | 0.00 | 0.00 | 0.00 | 18 | 1003.4 |
| 20260906000037 | 31 | 360 | 16.1 | 27.4 | 0.00 | 0.00 | 0.00 | 19 | 1003.5 |
| 20260905234539 | 32 | 360 | 17.7 | 25.7 | 0.00 | 0.00 | 0.00 | 21 | 1003.4 |
| 20260905233046 | 32 | 360 | 14.5 | 32.2 | 0.00 | 0.00 | 0.00 | 21 | 1003.5 |
| 20260905231536 | 31 | 360 | 8.0 | 38.6 | 0.00 | 0.00 | 0.00 | 21 | 1003.5 |
| 20260905230032 | 31 | 360 | 4.8 | 25.7 | 0.00 | 0.00 | 0.00 | 22 | 1003.6 |
| 20260905224531 | 31 | 360 | 11.3 | 33.8 | 0.00 | 0.00 | 0.00 | 21 | 1003.6 |
| 20260905223029 | 31 | 360 | 6.4 | 25.7 | 0.00 | 0.00 | 0.00 | 25 | 1003.7 |